createdAt,value
2022-08-05T00:00:17.656Z,12.15
2022-08-05T00:02:51.042Z,16.50
2022-08-05T00:06:03.006Z,12.43
2022-08-05T00:08:19.823Z,14.85
2022-08-05T00:10:53.828Z,14.70
2022-08-05T00:13:20.477Z,15.57
2022-08-05T00:16:05.676Z,13.15
2022-08-05T00:18:35.506Z,13.40
2022-08-05T00:21:05.204Z,14.48
2022-08-05T00:23:45.993Z,17.23
2022-08-05T00:26:20.508Z,16.73
2022-08-05T00:28:47.154Z,12.93
2022-08-05T00:31:16.318Z,9.75
2022-08-05T00:34:53.755Z,15.43
2022-08-05T00:37:12.294Z,13.52
2022-08-05T00:39:16.390Z,22.45
2022-08-05T00:41:54.953Z,15.73
2022-08-05T00:44:30.608Z,18.33
2022-08-05T00:47:03.783Z,14.30
2022-08-05T00:49:44.626Z,13.90
2022-08-05T00:52:28.677Z,17.90
2022-08-05T00:54:56.247Z,16.48
2022-08-05T00:57:25.462Z,15.57
2022-08-05T00:59:58.593Z,14.75
2022-08-05T01:02:25.187Z,14.25
2022-08-05T01:04:51.801Z,17.80
2022-08-05T01:07:18.522Z,14.30
2022-08-05T01:09:45.129Z,11.55
2022-08-05T01:12:17.892Z,11.05
2022-08-05T01:14:53.472Z,14.25
2022-08-05T01:17:40.074Z,14.45
2022-08-05T01:20:17.011Z,16.75
2022-08-05T01:23:23.719Z,18.35
2022-08-05T01:26:14.467Z,16.95
2022-08-05T01:28:47.339Z,15.77
2022-08-05T01:31:22.289Z,16.55
2022-08-05T01:33:55.338Z,22.27
2022-08-05T01:36:28.171Z,18.65
2022-08-05T01:38:56.268Z,18.50
2022-08-05T01:41:25.716Z,24.27
2022-08-05T01:43:53.474Z,20.23
2022-08-05T01:46:42.442Z,19.55
2022-08-05T01:49:23.096Z,16.83
2022-08-05T01:51:54.746Z,16.52
2022-08-05T01:54:25.682Z,17.37
2022-08-05T01:58:09.489Z,16.88
2022-08-05T01:59:47.123Z,23.75
2022-08-05T02:02:14.151Z,22.97
2022-08-05T02:04:46.231Z,18.25
2022-08-05T02:07:22.239Z,18.48
2022-08-05T02:09:50.971Z,23.10
2022-08-05T02:12:22.834Z,22.48
2022-08-05T02:15:03.109Z,22.25
2022-08-05T02:18:30.966Z,23.60
2022-08-05T02:20:22.847Z,23.93
2022-08-05T02:22:59.932Z,22.23
2022-08-05T02:25:33.017Z,25.85
2022-08-05T02:28:02.419Z,23.73
2022-08-05T02:30:54.559Z,30.15
2022-08-05T02:33:24.676Z,32.28
2022-08-05T02:36:03.531Z,32.30
2022-08-05T02:38:35.076Z,28.70
2022-08-05T02:41:06.376Z,31.75
2022-08-05T02:44:06.886Z,30.08
2022-08-05T02:46:29.064Z,45.75
2022-08-05T02:48:56.915Z,36.00
2022-08-05T02:51:28.399Z,34.67
2022-08-05T02:54:11.852Z,35.13
2022-08-05T02:56:58.958Z,39.85
2022-08-05T02:59:27.063Z,35.88
2022-08-05T03:01:58.361Z,38.95
2022-08-05T03:04:25.508Z,44.00
2022-08-05T03:06:56.736Z,43.42
2022-08-05T03:09:36.429Z,42.20
2022-08-05T03:12:06.128Z,46.70
2022-08-05T03:14:32.631Z,56.65
2022-08-05T03:16:59.589Z,54.60
2022-08-05T03:19:34.313Z,57.38
2022-08-05T03:22:04.726Z,52.67
2022-08-05T03:24:31.970Z,50.67
2022-08-05T03:27:00.302Z,52.60
2022-08-05T03:29:44.745Z,55.65
2022-08-05T03:32:12.217Z,52.28
2022-08-05T03:34:42.393Z,57.83
2022-08-05T03:37:18.561Z,57.25
2022-08-05T03:40:01.443Z,58.50
2022-08-05T03:42:29.040Z,59.55
2022-08-05T03:44:55.831Z,65.95
2022-08-05T03:47:24.110Z,62.28
2022-08-05T03:49:52.400Z,72.97
2022-08-05T03:52:37.264Z,72.20
2022-08-05T03:56:05.915Z,58.20
2022-08-05T03:57:58.903Z,58.13
2022-08-05T04:00:29.777Z,68.03
2022-08-05T04:02:59.847Z,70.15
2022-08-05T04:05:33.689Z,61.97
2022-08-05T04:08:05.663Z,78.55
2022-08-05T04:10:42.209Z,67.30
2022-08-05T04:13:08.796Z,74.18
2022-08-05T04:15:36.229Z,72.53
2022-08-05T04:18:07.309Z,70.25
2022-08-05T04:20:36.491Z,59.63
2022-08-05T04:23:03.209Z,67.00
2022-08-05T04:25:49.425Z,70.65
2022-08-05T04:28:17.588Z,65.05
2022-08-05T04:30:44.544Z,68.75
2022-08-05T04:33:11.925Z,68.82
2022-08-05T04:36:15.939Z,64.10
2022-08-05T04:38:39.479Z,73.25
2022-08-05T04:43:33.337Z,68.50
2022-08-05T04:46:00.145Z,71.82
2022-08-05T04:48:28.061Z,68.85
2022-08-05T04:51:01.585Z,70.25
2022-08-05T04:53:33.603Z,69.93
2022-08-05T04:56:32.624Z,71.70
2022-08-05T04:58:49.791Z,68.68
2022-08-05T05:02:07.852Z,68.25
2022-08-05T05:04:02.980Z,81.22
2022-08-05T05:06:38.797Z,74.43
2022-08-05T05:09:07.656Z,81.70
2022-08-05T05:11:48.561Z,84.40
2022-08-05T05:14:28.205Z,80.80
2022-08-05T05:17:01.487Z,86.47
2022-08-05T05:19:37.029Z,76.60
2022-08-05T05:22:23.818Z,89.00
2022-08-05T05:24:58.946Z,89.00
2022-08-05T05:27:44.254Z,86.30
2022-08-05T05:30:31.108Z,85.35
2022-08-05T05:33:03.584Z,87.53
2022-08-05T05:35:43.360Z,95.72
2022-08-05T05:38:13.389Z,83.10
2022-08-05T05:40:48.287Z,87.82
2022-08-05T05:43:22.198Z,95.50
2022-08-05T05:45:54.609Z,90.75
2022-08-05T05:48:27.304Z,93.85
2022-08-05T05:50:54.506Z,85.35
2022-08-05T05:53:22.247Z,78.93
2022-08-05T05:55:51.710Z,74.75
2022-08-05T05:58:31.803Z,69.28
2022-08-05T06:01:02.221Z,74.38
2022-08-05T06:04:00.685Z,74.38
2022-08-05T06:06:28.005Z,65.72
2022-08-05T06:08:58.145Z,64.75
2022-08-05T06:11:24.769Z,67.80
2022-08-05T06:13:53.958Z,68.43
2022-08-05T06:16:30.074Z,58.97
2022-08-05T06:19:05.507Z,58.50
2022-08-05T06:21:36.579Z,57.45
2022-08-05T06:24:07.716Z,57.28
2022-08-05T06:26:38.208Z,55.97
2022-08-05T06:29:06.451Z,57.20
2022-08-05T06:31:52.144Z,54.83
2022-08-05T06:34:19.864Z,51.22
2022-08-05T06:36:56.640Z,42.85
2022-08-05T06:39:27.257Z,40.45
2022-08-05T06:41:57.379Z,36.53
2022-08-05T06:44:26.052Z,41.00
2022-08-05T06:46:52.837Z,34.97
2022-08-05T06:50:00.657Z,40.80
2022-08-05T06:52:08.101Z,31.42
2022-08-05T06:54:54.620Z,35.58
2022-08-05T06:58:03.158Z,39.70
2022-08-05T07:00:09.681Z,35.00
2022-08-05T07:02:43.964Z,34.03
2022-08-05T07:05:15.425Z,26.30
2022-08-05T07:07:48.789Z,32.05
2022-08-05T07:10:16.492Z,29.90
2022-08-05T07:13:02.643Z,36.72
2022-08-05T07:16:02.030Z,29.60
2022-08-05T07:18:31.950Z,30.08
2022-08-05T07:21:04.833Z,33.30
2022-08-05T07:23:32.519Z,29.88
2022-08-05T07:25:59.219Z,30.20
2022-08-05T07:28:26.250Z,28.30
2022-08-05T07:30:54.814Z,25.58
2022-08-05T07:33:37.120Z,26.25
2022-08-05T07:36:20.576Z,31.05
2022-08-05T07:38:49.065Z,21.50
2022-08-05T07:42:13.251Z,24.75
2022-08-05T07:44:19.113Z,21.98
2022-08-05T07:46:48.261Z,23.05
2022-08-05T07:49:15.325Z,23.45
2022-08-05T07:51:53.199Z,22.23
2022-08-05T07:54:31.510Z,14.68
2022-08-05T07:57:18.147Z,16.42
2022-08-05T07:59:50.532Z,16.52
2022-08-05T08:02:18.198Z,14.95
2022-08-05T08:04:49.205Z,14.60
2022-08-05T08:09:45.021Z,15.07
2022-08-05T08:12:36.825Z,12.93
2022-08-05T08:15:02.433Z,17.75
2022-08-05T08:17:30.280Z,12.77
2022-08-05T08:20:42.568Z,17.92
2022-08-05T08:22:43.682Z,15.88
2022-08-05T08:25:15.870Z,13.38
2022-08-05T08:27:47.527Z,15.93
2022-08-05T08:32:57.269Z,14.82
2022-08-05T08:35:26.631Z,13.13
2022-08-05T08:37:54.475Z,10.80
2022-08-05T08:40:23.756Z,14.05
2022-08-05T08:42:52.652Z,13.25
2022-08-05T08:45:27.252Z,14.73
2022-08-05T08:48:07.437Z,13.13
2022-08-05T08:51:03.334Z,15.88
2022-08-05T08:53:37.478Z,12.75
2022-08-05T08:56:06.285Z,14.02
2022-08-05T08:58:37.593Z,9.95
2022-08-05T09:01:15.630Z,13.32
2022-08-05T09:03:55.060Z,13.80
2022-08-05T09:06:24.254Z,12.65
2022-08-05T09:09:00.637Z,14.82
2022-08-05T09:11:50.854Z,12.15
2022-08-05T09:14:57.810Z,10.63
2022-08-05T09:17:02.499Z,16.42
2022-08-05T09:19:36.739Z,13.93
2022-08-05T09:22:23.300Z,9.63
2022-08-05T09:25:13.908Z,17.70
2022-08-05T09:28:05.339Z,13.63
2022-08-05T09:30:34.210Z,20.67
2022-08-05T09:33:04.742Z,32.40
2022-08-05T09:35:31.796Z,34.50
2022-08-05T09:38:11.991Z,49.88
2022-08-05T09:40:52.272Z,58.47
2022-08-05T09:43:41.192Z,61.78
2022-08-05T09:46:30.368Z,55.08
2022-08-05T09:49:08.064Z,58.13
2022-08-05T09:51:44.803Z,48.65
2022-08-05T09:54:28.837Z,38.80
2022-08-05T09:56:56.212Z,23.00
2022-08-05T09:59:27.582Z,24.77
2022-08-05T10:01:58.207Z,24.05
2022-08-05T10:04:39.570Z,12.45
2022-08-05T10:07:20.575Z,10.25
2022-08-05T10:10:04.355Z,13.23
2022-08-05T10:12:49.427Z,9.45
2022-08-05T10:15:22.208Z,9.52
2022-08-05T10:18:08.731Z,11.65
2022-08-05T10:20:44.532Z,11.13
2022-08-05T10:23:34.431Z,8.77
2022-08-05T10:26:13.982Z,9.68
2022-08-05T10:28:56.913Z,8.00
2022-08-05T10:32:54.859Z,5.50
2022-08-05T10:34:10.657Z,6.07
2022-08-05T10:36:38.413Z,4.85
2022-08-05T10:39:24.791Z,17.08
2022-08-05T10:42:05.364Z,8.38
2022-08-05T10:44:32.508Z,12.23
2022-08-05T10:46:59.295Z,7.30
2022-08-05T10:49:33.291Z,8.07
2022-08-05T10:52:05.011Z,7.90
2022-08-05T10:55:05.305Z,7.68
2022-08-05T10:57:34.291Z,6.70
2022-08-05T11:00:12.195Z,6.25
2022-08-05T11:03:25.807Z,7.88
2022-08-05T11:06:15.812Z,8.15
2022-08-05T11:09:18.505Z,6.57
2022-08-05T11:11:52.560Z,9.32
2022-08-05T11:17:57.639Z,9.07
2022-08-05T11:20:37.383Z,6.90
2022-08-05T11:24:02.218Z,7.63
2022-08-05T11:26:17.243Z,6.72
2022-08-05T11:29:12.221Z,7.72
2022-08-05T11:31:57.072Z,8.25
2022-08-05T11:34:37.696Z,6.10
2022-08-05T11:37:06.128Z,9.02
2022-08-05T11:39:55.620Z,8.60
2022-08-05T11:42:32.024Z,8.88
2022-08-05T11:45:05.434Z,11.13
2022-08-05T11:47:49.340Z,8.65
2022-08-05T11:50:17.955Z,8.18
2022-08-05T11:52:46.041Z,9.05
2022-08-05T11:55:15.409Z,9.07
2022-08-05T11:58:09.151Z,6.57
2022-08-05T12:00:32.551Z,7.38
2022-08-05T12:03:24.084Z,9.20
2022-08-05T12:06:05.989Z,6.45
2022-08-05T12:08:51.275Z,9.88
2022-08-05T12:11:20.813Z,12.85
2022-08-05T12:14:03.996Z,4.80
2022-08-05T12:16:45.427Z,8.52
2022-08-05T12:20:26.678Z,8.77
2022-08-05T12:22:01.148Z,5.95
2022-08-05T12:24:27.942Z,5.20
2022-08-05T12:26:54.607Z,7.30
2022-08-05T12:29:26.147Z,8.93
2022-08-05T12:32:02.185Z,7.72
2022-08-05T12:34:35.771Z,7.72
2022-08-05T12:37:17.349Z,5.78
2022-08-05T12:39:50.417Z,6.90
2022-08-05T12:42:20.265Z,5.85
2022-08-05T12:44:47.756Z,7.60
2022-08-05T12:47:17.113Z,7.15
2022-08-05T12:50:03.164Z,5.38
2022-08-05T12:52:38.122Z,6.43
2022-08-05T12:55:22.011Z,5.53
2022-08-05T12:58:38.748Z,12.18
2022-08-05T13:02:00.105Z,8.43
2022-08-05T13:03:32.191Z,10.52
2022-08-05T13:05:59.407Z,7.25
2022-08-05T13:08:29.877Z,7.47
2022-08-05T13:11:02.336Z,8.05
2022-08-05T13:14:04.607Z,4.80
2022-08-05T13:16:17.384Z,7.82
2022-08-05T13:18:58.894Z,7.57
2022-08-05T13:21:28.191Z,3.50
2022-08-05T13:24:04.743Z,6.05
2022-08-05T13:26:31.538Z,6.20
2022-08-05T13:28:59.208Z,6.93
2022-08-05T13:31:33.772Z,5.32
2022-08-05T13:34:21.194Z,7.97
2022-08-05T13:36:53.964Z,3.65
2022-08-05T13:40:13.513Z,6.65
2022-08-05T13:42:14.278Z,3.72
2022-08-05T13:44:45.321Z,4.25
2022-08-05T13:47:35.971Z,4.82
2022-08-05T13:50:01.373Z,6.88
2022-08-05T13:52:31.665Z,6.75
2022-08-05T13:55:07.287Z,4.82
2022-08-05T13:57:50.965Z,5.22
2022-08-05T14:00:27.462Z,6.80
2022-08-05T14:02:56.654Z,4.00
2022-08-05T14:05:48.230Z,5.82
2022-08-05T14:08:20.569Z,4.68
2022-08-05T14:10:54.355Z,5.22
2022-08-05T14:13:30.146Z,3.45
2022-08-05T14:16:05.260Z,3.78
2022-08-05T14:18:36.026Z,4.00
2022-08-05T14:22:07.769Z,4.07
2022-08-05T14:23:51.157Z,3.22
2022-08-05T14:26:38.339Z,2.05
2022-08-05T14:29:05.137Z,2.67
2022-08-05T14:32:02.858Z,3.92
2022-08-05T14:34:29.179Z,3.08
2022-08-05T14:37:01.762Z,3.35
2022-08-05T14:39:28.470Z,5.05
2022-08-05T14:42:19.330Z,5.55
2022-08-05T14:44:42.504Z,4.53
2022-08-05T14:47:09.563Z,8.57
2022-08-05T14:49:56.239Z,3.03
2022-08-05T14:52:50.325Z,1.35
2022-08-05T14:55:15.371Z,2.22
2022-08-05T14:57:54.494Z,3.90
2022-08-05T15:00:28.079Z,3.50
2022-08-05T15:02:56.603Z,6.05
2022-08-05T15:05:29.896Z,3.78
2022-08-05T15:08:06.641Z,5.45
2022-08-05T15:10:39.138Z,4.88
2022-08-05T15:13:06.221Z,2.22
2022-08-05T15:15:54.334Z,3.22
2022-08-05T15:18:22.669Z,3.10
2022-08-05T15:20:49.545Z,6.05
2022-08-05T15:23:16.238Z,2.72
2022-08-05T15:25:53.801Z,5.13
2022-08-05T15:28:27.241Z,3.80
2022-08-05T15:30:54.781Z,3.15
2022-08-05T15:33:56.940Z,1.75
2022-08-05T15:36:11.574Z,1.38
2022-08-05T15:38:44.847Z,2.53
2022-08-05T15:41:23.005Z,5.78
2022-08-05T15:43:51.962Z,4.22
2022-08-05T15:46:24.060Z,2.38
2022-08-05T15:48:57.972Z,2.13
2022-08-05T15:52:10.040Z,1.50
2022-08-05T15:54:15.872Z,4.20
2022-08-05T15:56:42.647Z,4.82
2022-08-05T15:59:10.559Z,2.33
2022-08-05T16:01:52.336Z,2.72
2022-08-05T16:04:19.877Z,2.15
2022-08-05T16:06:46.470Z,2.30
2022-08-05T16:09:13.400Z,3.25
2022-08-05T16:11:43.344Z,1.50
2022-08-05T16:14:10.828Z,1.83
2022-08-05T16:16:44.477Z,1.65
2022-08-05T16:19:25.558Z,2.25
2022-08-05T16:22:02.937Z,1.42
2022-08-05T16:24:39.730Z,4.15
2022-08-05T16:27:08.951Z,3.92
2022-08-05T16:29:37.665Z,5.28
2022-08-05T16:32:09.528Z,1.50
2022-08-05T16:34:36.606Z,2.42
2022-08-05T16:38:02.364Z,2.97
2022-08-05T16:40:06.366Z,2.50
2022-08-05T16:42:34.755Z,1.60
2022-08-05T16:45:01.821Z,3.95
2022-08-05T16:47:36.188Z,3.15
2022-08-05T16:50:10.536Z,6.00
2022-08-05T16:52:37.213Z,7.32
2022-08-05T16:55:04.566Z,2.45
2022-08-05T16:58:00.155Z,1.73
2022-08-05T17:00:25.992Z,1.27
2022-08-05T17:03:01.982Z,2.55
2022-08-05T17:05:28.695Z,2.40
2022-08-05T17:07:55.348Z,2.63
2022-08-05T17:10:22.726Z,3.20
2022-08-05T17:12:55.010Z,3.07
2022-08-05T17:15:21.977Z,3.85
2022-08-05T17:17:55.048Z,6.45
2022-08-05T17:20:21.940Z,2.17
2022-08-05T17:22:49.158Z,3.03
2022-08-05T17:25:39.396Z,2.90
2022-08-05T17:28:06.878Z,2.80
2022-08-05T17:30:50.277Z,2.13
2022-08-05T17:33:19.994Z,3.42
2022-08-05T17:36:07.608Z,3.83
2022-08-05T17:38:33.359Z,1.63
2022-08-05T17:41:00.106Z,1.83
2022-08-05T17:43:47.036Z,4.25
2022-08-05T17:46:13.214Z,3.80
2022-08-05T17:48:40.199Z,1.88
2022-08-05T17:51:09.845Z,2.42
2022-08-05T17:53:36.393Z,4.07
2022-08-05T17:56:04.487Z,2.70
2022-08-05T17:58:32.639Z,3.38
2022-08-05T18:00:59.437Z,2.42
2022-08-05T18:03:58.664Z,4.43
2022-08-05T18:06:15.253Z,2.70
2022-08-05T18:08:52.418Z,5.32
2022-08-05T18:11:24.053Z,6.30
2022-08-05T18:13:53.217Z,6.63
2022-08-05T18:16:20.513Z,2.72
2022-08-05T18:18:47.997Z,3.22
2022-08-05T18:21:19.933Z,2.25
2022-08-05T18:23:48.001Z,2.28
2022-08-05T18:26:14.681Z,3.17
2022-08-05T18:28:46.560Z,6.18
2022-08-05T18:31:15.695Z,2.50
2022-08-05T18:33:47.138Z,3.63
2022-08-05T18:36:17.390Z,3.22
2022-08-05T18:38:45.980Z,2.53
2022-08-05T18:41:56.032Z,4.93
2022-08-05T18:44:05.427Z,2.83
2022-08-05T18:46:33.165Z,2.17
2022-08-05T18:49:20.464Z,2.60
2022-08-05T18:52:08.641Z,3.65
2022-08-05T18:54:35.824Z,3.78
2022-08-05T18:57:02.637Z,6.25
2022-08-05T18:59:44.355Z,3.92
2022-08-05T19:02:36.590Z,2.90
2022-08-05T19:06:05.494Z,5.63
2022-08-05T19:07:52.511Z,5.97
2022-08-05T19:10:28.403Z,1.13
2022-08-05T19:12:56.545Z,3.72
2022-08-05T19:15:57.983Z,5.05
2022-08-05T19:18:20.620Z,1.88
2022-08-05T19:20:51.474Z,3.50
2022-08-05T19:24:04.372Z,2.83
2022-08-05T19:26:04.992Z,7.95
2022-08-05T19:28:35.138Z,2.90
2022-08-05T19:31:05.807Z,4.68
2022-08-05T19:33:36.447Z,12.60
2022-08-05T19:36:07.225Z,4.43
2022-08-05T19:38:36.520Z,3.35
2022-08-05T19:41:07.191Z,5.75
2022-08-05T19:44:06.462Z,2.92
2022-08-05T19:46:30.453Z,4.78
2022-08-05T19:49:04.607Z,2.17
2022-08-05T19:52:05.328Z,1.35
2022-08-05T19:54:25.640Z,3.65
2022-08-05T19:56:56.137Z,4.07
2022-08-05T19:59:55.368Z,6.45
2022-08-05T20:02:09.275Z,4.70
2022-08-05T20:04:37.936Z,6.50
2022-08-05T20:07:10.283Z,3.80
2022-08-05T20:09:53.653Z,4.38
2022-08-05T20:12:22.502Z,6.05
2022-08-05T20:14:52.317Z,7.40
2022-08-05T20:17:19.864Z,9.70
2022-08-05T20:19:50.564Z,4.82
2022-08-05T20:22:17.208Z,2.58
2022-08-05T20:24:46.940Z,2.72
2022-08-05T20:27:15.797Z,9.40
2022-08-05T20:29:42.472Z,6.07
2022-08-05T20:32:25.283Z,3.90
2022-08-05T20:34:51.873Z,4.28
2022-08-05T20:38:05.876Z,6.60
2022-08-05T20:40:05.551Z,1.90
2022-08-05T20:42:33.211Z,8.05
2022-08-05T20:44:59.737Z,3.38
2022-08-05T20:47:32.273Z,5.80
2022-08-05T20:49:59.431Z,2.65
2022-08-05T20:52:26.450Z,3.88
2022-08-05T20:54:59.639Z,15.55
2022-08-05T20:57:43.530Z,4.82
2022-08-05T21:03:01.456Z,9.40
2022-08-05T21:05:37.947Z,3.60
2022-08-05T21:08:14.983Z,2.60
2022-08-05T21:10:48.555Z,10.40
2022-08-05T21:13:36.727Z,3.15
2022-08-05T21:16:03.568Z,2.70
2022-08-05T21:18:30.385Z,2.63
2022-08-05T21:20:57.470Z,4.00
2022-08-05T21:23:24.877Z,4.07
2022-08-05T21:25:51.608Z,3.47
2022-08-05T21:28:23.821Z,4.23
2022-08-05T21:30:50.688Z,2.25
2022-08-05T21:33:22.439Z,5.30
2022-08-05T21:35:58.229Z,5.55
2022-08-05T21:38:26.564Z,4.28
2022-08-05T21:40:53.193Z,4.82
2022-08-05T21:43:24.750Z,2.97
2022-08-05T21:45:57.987Z,3.45
2022-08-05T21:48:27.881Z,7.70
2022-08-05T21:50:55.106Z,5.00
2022-08-05T21:53:21.894Z,6.60
2022-08-05T21:56:05.353Z,2.13
2022-08-05T21:58:42.345Z,4.78
2022-08-05T22:01:24.055Z,3.00
2022-08-05T22:03:53.161Z,5.25
2022-08-05T22:06:22.355Z,4.32
2022-08-05T22:08:52.187Z,3.58
2022-08-05T22:11:34.533Z,5.72
2022-08-05T22:14:35.221Z,2.92
2022-08-05T22:16:57.054Z,5.32
2022-08-05T22:20:00.503Z,3.63
2022-08-05T22:22:15.397Z,5.13
2022-08-05T22:25:01.828Z,3.03
2022-08-05T22:28:09.109Z,5.88
2022-08-05T22:30:35.097Z,4.70
2022-08-05T22:33:03.255Z,2.40
2022-08-05T22:35:31.028Z,5.63
2022-08-05T22:38:05.466Z,2.45
2022-08-05T22:40:32.099Z,4.55
2022-08-05T22:42:59.957Z,6.78
2022-08-05T22:45:26.975Z,5.00
2022-08-05T22:47:57.551Z,2.75
2022-08-05T22:50:26.678Z,9.48
2022-08-05T22:52:54.837Z,3.53
2022-08-05T22:55:22.922Z,4.32
2022-08-05T22:57:51.039Z,4.75
2022-08-05T23:00:20.783Z,5.65
2022-08-05T23:02:48.525Z,4.23
2022-08-05T23:05:15.939Z,3.58
2022-08-05T23:07:48.461Z,7.80
2022-08-05T23:10:20.035Z,7.03
2022-08-05T23:12:51.500Z,5.28
2022-08-05T23:15:22.353Z,9.38
2022-08-05T23:18:01.458Z,9.30
2022-08-05T23:20:30.208Z,9.32
2022-08-05T23:22:58.504Z,5.57
2022-08-05T23:25:54.867Z,4.60
2022-08-05T23:28:12.823Z,4.38
2022-08-05T23:30:43.907Z,4.95
2022-08-05T23:33:25.788Z,2.65
2022-08-05T23:36:05.932Z,2.85
2022-08-05T23:38:36.594Z,4.93
2022-08-05T23:41:03.204Z,9.88
2022-08-05T23:43:37.261Z,4.28
2022-08-05T23:46:20.130Z,6.63
2022-08-05T23:49:00.277Z,9.10
2022-08-05T23:51:52.560Z,6.82
2022-08-05T23:54:25.235Z,5.95
2022-08-05T23:56:53.261Z,8.20
2022-08-05T23:59:19.800Z,5.38
